הכול
Jordan Airport (Jordan, MT) JDN מזג אוויר
|
Jordan, MT (KJDN)
שמים בהירים
רוחות קלות |
|
22 °C |
There is no TAF data available at JDN or any nearby airports.
Recent JDN METAR history
| Date | Time (MDT) | Flight Rules | Wind Dir. | Speed | Type | Height AGL (ft) | Visibility | Temp (°C) | Temp (°F) | Dew Point (°C) | Dew Point (°F) | Rel. Humid. | Pressure | Density Altitude | Remarks |
|---|---|---|---|---|---|---|---|---|---|---|---|---|---|---|---|
| 06-ספט | 14:48 | n/a | 300° | 6 kt | Missing | 22° | 71° | 18° | 64° | 76% | 29.93 in Hg | 3,972 ft | |||
| 06-ספט | 13:48 | n/a | 340° | 9 kt | Missing | 22° | 71° | 17° | 62° | 76% | 29.93 in Hg | 3,972 ft | |||
| 06-ספט | 12:48 | n/a | 320° | 8 kt | Missing | 22° | 71° | 17° | 62° | 76% | 29.95 in Hg | 3,952 ft | |||
| 06-ספט | 11:48 | n/a | 30° | 8 kt | Missing | 22° | 71° | 18° | 64° | 76% | 29.95 in Hg | 3,952 ft | |||
| 06-ספט | 10:48 | n/a | 20° | 8 kt | Missing | 21° | 69° | 18° | 64° | 81% | 29.97 in Hg | 3,812 ft | |||
| 06-ספט | 09:48 | n/a | 360° | 3 kt | Missing | 21° | 69° | 17° | 62° | 78% | 29.99 in Hg | 3,792 ft | |||
| 06-ספט | 08:48 | n/a | 20° | 10 kt | Missing | 19° | 66° | 17° | 62° | 84% | 29.97 in Hg | 3,572 ft | |||
| 06-ספט | 07:48 | n/a | Calm | Missing | 18° | 64° | 16° | 60° | 87% | 29.98 in Hg | 3,442 ft | ||||
| 06-ספט | 06:48 | n/a | 300° | 5 kt | Missing | 18° | 64° | 16° | 60° | 87% | 29.98 in Hg | 3,442 ft | |||
| 06-ספט | 05:48 | n/a | 320° | 5 kt | Missing | 18° | 64° | 17° | 62° | 90% | 29.98 in Hg | 3,442 ft | |||
| 06-ספט | 04:48 | n/a | 300° | 5 kt | Missing | 18° | 64° | 16° | 60° | 90% | 29.99 in Hg | 3,432 ft | |||
| 06-ספט | 03:48 | n/a | 30° | 10 kt | Missing | 18° | 64° | 16° | 60° | 84% | 29.96 in Hg | 3,462 ft | |||
| 06-ספט | 02:48 | n/a | 300° | 5 kt | Missing | 18° | 64° | 15° | 59° | 81% | 30.02 in Hg | 3,402 ft | |||
| 06-ספט | 01:48 | n/a | 280° | 7 kt | Missing | 17° | 62° | 14° | 57° | 84% | 30.01 in Hg | 3,292 ft | |||
| 06-ספט | 00:48 | n/a | 280° | 3 kt | Missing | 17° | 62° | 14° | 57° | 84% | 29.99 in Hg | 3,312 ft | |||
| 05-ספט | 23:48 | n/a | 20° | 7 kt | Missing | 19° | 66° | 14° | 57° | 75% | 29.98 in Hg | 3,562 ft | |||
| 05-ספט | 22:48 | n/a | 30° | 6 kt | Missing | 20° | 68° | 14° | 57° | 70% | 30.00 in Hg | 3,662 ft | |||
| 05-ספט | 21:48 | n/a | 10° | 10 kt | Missing | 22° | 71° | 14° | 57° | 63% | 30.00 in Hg | 3,902 ft | |||
| 05-ספט | 20:48 | n/a | 10° | 7 kt | Missing | 20° | 68° | 14° | 57° | 68% | 30.00 in Hg | 3,662 ft | |||
| 05-ספט | 19:48 | n/a | 20° | 6 kt | Missing | 22° | 71° | 14° | 57° | 59% | 29.98 in Hg | 3,922 ft | |||
| 05-ספט | 18:48 | n/a | 20° | 13 kt | Missing | 26° | 78° | 13° | 55° | 45% | 29.97 in Hg | 4,412 ft | |||
| 05-ספט | 17:48 | n/a | 20° | 14 kt | Missing | 28° | 82° | 14° | 57° | 43% | 29.97 in Hg | 4,652 ft | |||
| 05-ספט | 16:48 | n/a | 360° | 13 kt | Missing | 28° | 82° | 13° | 55° | 38% | 29.96 in Hg | 4,662 ft | |||
| 05-ספט | 15:48 | n/a | 350° | 14 kt | Missing | 28° | 82° | 13° | 55° | 38% | 29.97 in Hg | 4,652 ft | Wind gusting to 20 KT |
כניסה לאתר
| אין תמיכה בדפדפן שלך. שדרג את הדפדפן שלך |
